White Mills, Kentucky
Current Conditions -  °F | °C
As of 3:13 AM on Monday 24 Nov 2014 (Local Time) from KFTK Reporting Station
Overcast Overcast  
Wind Chill: 59°   Ceiling: 1900
Heat Index: 59°   Visibility: 10mi
Dew Point: 55°   Wind: 21mph
Humidity: 88%   Direction: 180°S
Pressure: 29.36"   Gusts: 28mph
Location:  37.56°N, 86.03°W
Report Text: KFTK 240813Z AUTO 18018G24KT 10SM BKN019 BKN028 OVC041 15/13 A2936 RMK AO2
Loading
Personal Weather Stations






























Interactive Weather Map New forecast layout! Learn more

10-Day Weather Forecast

Advertisements
Track Severe Weather on mobile